sensor_id;sensor_type;location;lat;lon;timestamp;P1;durP1;ratioP1;P2;durP2;ratioP2
54787;SDS011;59598;48.112;16.280;2022-07-10T00:01:03;1.50;;;1.27;;
54787;SDS011;59598;48.112;16.280;2022-07-10T00:03:37;1.40;;;1.20;;
54787;SDS011;59598;48.112;16.280;2022-07-10T00:06:11;1.13;;;1.13;;
54787;SDS011;59598;48.112;16.280;2022-07-10T00:08:44;1.40;;;1.30;;
54787;SDS011;59598;48.112;16.280;2022-07-10T00:11:17;1.13;;;1.02;;
54787;SDS011;59598;48.112;16.280;2022-07-10T00:13:50;1.25;;;1.10;;
54787;SDS011;59598;48.112;16.280;2022-07-10T00:16:23;1.60;;;1.10;;
54787;SDS011;59598;48.112;16.280;2022-07-10T00:18:55;1.30;;;1.20;;
54787;SDS011;59598;48.112;16.280;2022-07-10T00:21:29;1.52;;;1.42;;
54787;SDS011;59598;48.112;16.280;2022-07-10T00:24:03;1.35;;;1.20;;
54787;SDS011;59598;48.112;16.280;2022-07-10T00:26:35;1.63;;;1.52;;
54787;SDS011;59598;48.112;16.280;2022-07-10T00:29:08;1.52;;;1.42;;
54787;SDS011;59598;48.112;16.280;2022-07-10T00:31:40;1.53;;;1.43;;
54787;SDS011;59598;48.112;16.280;2022-07-10T00:34:18;2.03;;;1.55;;
54787;SDS011;59598;48.112;16.280;2022-07-10T00:36:52;1.17;;;1.17;;
54787;SDS011;59598;48.112;16.280;2022-07-10T00:39:26;2.25;;;1.30;;
54787;SDS011;59598;48.112;16.280;2022-07-10T00:42:13;1.35;;;1.33;;
54787;SDS011;59598;48.112;16.280;2022-07-10T00:44:45;1.25;;;1.17;;
54787;SDS011;59598;48.112;16.280;2022-07-10T00:47:16;1.58;;;1.48;;
54787;SDS011;59598;48.112;16.280;2022-07-10T00:49:52;1.17;;;1.10;;
54787;SDS011;59598;48.112;16.280;2022-07-10T00:52:26;1.50;;;1.40;;
54787;SDS011;59598;48.112;16.280;2022-07-10T00:54:57;1.25;;;1.15;;
54787;SDS011;59598;48.112;16.280;2022-07-10T00:57:31;2.25;;;1.30;;
54787;SDS011;59598;48.112;16.280;2022-07-10T01:02:39;1.45;;;1.35;;
54787;SDS011;59598;48.112;16.280;2022-07-10T01:05:16;1.48;;;1.38;;
54787;SDS011;59598;48.112;16.280;2022-07-10T01:07:52;1.50;;;1.40;;
54787;SDS011;59598;48.112;16.280;2022-07-10T01:10:23;1.40;;;1.30;;
54787;SDS011;59598;48.112;16.280;2022-07-10T01:12:55;1.60;;;1.45;;
54787;SDS011;59598;48.112;16.280;2022-07-10T01:15:29;1.13;;;1.13;;
54787;SDS011;59598;48.112;16.280;2022-07-10T01:18:03;1.15;;;1.13;;
54787;SDS011;59598;48.112;16.280;2022-07-10T01:20:34;1.73;;;1.20;;
54787;SDS011;59598;48.112;16.280;2022-07-10T01:23:06;1.52;;;1.42;;
54787;SDS011;59598;48.112;16.280;2022-07-10T01:25:37;2.08;;;1.50;;
54787;SDS011;59598;48.112;16.280;2022-07-10T01:28:08;2.35;;;1.50;;
54787;SDS011;59598;48.112;16.280;2022-07-10T01:30:40;1.67;;;1.58;;
54787;SDS011;59598;48.112;16.280;2022-07-10T01:33:16;1.25;;;1.15;;
54787;SDS011;59598;48.112;16.280;2022-07-10T01:35:50;1.33;;;1.23;;
54787;SDS011;59598;48.112;16.280;2022-07-10T01:38:21;1.40;;;1.30;;
54787;SDS011;59598;48.112;16.280;2022-07-10T01:40:58;1.40;;;1.35;;
54787;SDS011;59598;48.112;16.280;2022-07-10T01:43:29;1.30;;;1.20;;
54787;SDS011;59598;48.112;16.280;2022-07-10T01:46:01;1.60;;;1.50;;
54787;SDS011;59598;48.112;16.280;2022-07-10T01:48:33;1.40;;;1.30;;
54787;SDS011;59598;48.112;16.280;2022-07-10T01:51:05;1.33;;;1.23;;
54787;SDS011;59598;48.112;16.280;2022-07-10T01:53:40;1.85;;;1.17;;
54787;SDS011;59598;48.112;16.280;2022-07-10T01:56:16;1.60;;;1.50;;
54787;SDS011;59598;48.112;16.280;2022-07-10T01:58:48;1.42;;;1.33;;
54787;SDS011;59598;48.112;16.280;2022-07-10T02:01:19;1.30;;;1.20;;
54787;SDS011;59598;48.112;16.280;2022-07-10T02:03:50;2.03;;;1.52;;
54787;SDS011;59598;48.112;16.280;2022-07-10T02:06:40;1.60;;;1.45;;
54787;SDS011;59598;48.112;16.280;2022-07-10T02:09:11;1.20;;;1.10;;
54787;SDS011;59598;48.112;16.280;2022-07-10T02:11:43;1.90;;;1.15;;
54787;SDS011;59598;48.112;16.280;2022-07-10T02:14:17;2.00;;;1.30;;
54787;SDS011;59598;48.112;16.280;2022-07-10T02:16:50;1.17;;;1.07;;
54787;SDS011;59598;48.112;16.280;2022-07-10T02:19:26;1.70;;;1.60;;
54787;SDS011;59598;48.112;16.280;2022-07-10T02:21:59;1.48;;;1.38;;
54787;SDS011;59598;48.112;16.280;2022-07-10T02:24:33;1.75;;;1.65;;
54787;SDS011;59598;48.112;16.280;2022-07-10T02:27:04;1.30;;;1.20;;
54787;SDS011;59598;48.112;16.280;2022-07-10T02:29:36;1.60;;;1.50;;
54787;SDS011;59598;48.112;16.280;2022-07-10T02:32:08;1.55;;;1.30;;
54787;SDS011;59598;48.112;16.280;2022-07-10T02:34:39;1.30;;;1.20;;
54787;SDS011;59598;48.112;16.280;2022-07-10T02:37:10;1.85;;;1.75;;
54787;SDS011;59598;48.112;16.280;2022-07-10T02:39:46;1.40;;;1.30;;
54787;SDS011;59598;48.112;16.280;2022-07-10T02:42:17;2.58;;;1.50;;
54787;SDS011;59598;48.112;16.280;2022-07-10T02:44:48;2.28;;;1.80;;
54787;SDS011;59598;48.112;16.280;2022-07-10T02:47:19;1.75;;;1.65;;
54787;SDS011;59598;48.112;16.280;2022-07-10T02:49:54;1.50;;;1.40;;
54787;SDS011;59598;48.112;16.280;2022-07-10T02:52:25;1.63;;;1.52;;
54787;SDS011;59598;48.112;16.280;2022-07-10T02:54:59;1.67;;;1.58;;
54787;SDS011;59598;48.112;16.280;2022-07-10T02:57:33;1.52;;;1.42;;
54787;SDS011;59598;48.112;16.280;2022-07-10T03:00:04;1.88;;;1.70;;
54787;SDS011;59598;48.112;16.280;2022-07-10T03:02:36;1.60;;;1.50;;
54787;SDS011;59598;48.112;16.280;2022-07-10T03:05:08;1.50;;;1.40;;
54787;SDS011;59598;48.112;16.280;2022-07-10T03:07:47;1.90;;;1.67;;
54787;SDS011;59598;48.112;16.280;2022-07-10T03:10:18;2.10;;;1.75;;
54787;SDS011;59598;48.112;16.280;2022-07-10T03:12:49;1.60;;;1.50;;
54787;SDS011;59598;48.112;16.280;2022-07-10T03:15:21;1.60;;;1.50;;
54787;SDS011;59598;48.112;16.280;2022-07-10T03:17:52;1.65;;;1.50;;
54787;SDS011;59598;48.112;16.280;2022-07-10T03:20:24;1.52;;;1.42;;
54787;SDS011;59598;48.112;16.280;2022-07-10T03:23:00;1.20;;;1.10;;
54787;SDS011;59598;48.112;16.280;2022-07-10T03:25:31;1.90;;;1.50;;
54787;SDS011;59598;48.112;16.280;2022-07-10T03:28:02;1.33;;;1.23;;
54787;SDS011;59598;48.112;16.280;2022-07-10T03:30:34;1.63;;;1.52;;
54787;SDS011;59598;48.112;16.280;2022-07-10T03:33:07;1.50;;;1.40;;
54787;SDS011;59598;48.112;16.280;2022-07-10T03:35:44;1.52;;;1.42;;
54787;SDS011;59598;48.112;16.280;2022-07-10T03:38:17;1.23;;;1.13;;
54787;SDS011;59598;48.112;16.280;2022-07-10T03:40:52;1.70;;;1.60;;
54787;SDS011;59598;48.112;16.280;2022-07-10T03:43:26;2.65;;;1.80;;
54787;SDS011;59598;48.112;16.280;2022-07-10T03:45:58;1.60;;;1.50;;
54787;SDS011;59598;48.112;16.280;2022-07-10T03:48:29;2.67;;;1.52;;
54787;SDS011;59598;48.112;16.280;2022-07-10T03:51:03;2.38;;;2.00;;
54787;SDS011;59598;48.112;16.280;2022-07-10T03:53:42;1.50;;;1.40;;
54787;SDS011;59598;48.112;16.280;2022-07-10T03:56:17;1.70;;;1.48;;
54787;SDS011;59598;48.112;16.280;2022-07-10T03:59:06;1.42;;;1.33;;
54787;SDS011;59598;48.112;16.280;2022-07-10T04:01:40;1.55;;;1.45;;
54787;SDS011;59598;48.112;16.280;2022-07-10T04:04:13;1.70;;;1.60;;
54787;SDS011;59598;48.112;16.280;2022-07-10T04:06:50;1.50;;;1.40;;
54787;SDS011;59598;48.112;16.280;2022-07-10T04:09:25;1.13;;;1.00;;
54787;SDS011;59598;48.112;16.280;2022-07-10T04:11:57;1.60;;;1.50;;
54787;SDS011;59598;48.112;16.280;2022-07-10T04:14:30;1.70;;;1.50;;
54787;SDS011;59598;48.112;16.280;2022-07-10T04:17:06;1.30;;;1.20;;
54787;SDS011;59598;48.112;16.280;2022-07-10T04:19:37;1.73;;;1.63;;
54787;SDS011;59598;48.112;16.280;2022-07-10T04:22:09;2.13;;;1.52;;
54787;SDS011;59598;48.112;16.280;2022-07-10T04:24:43;2.33;;;1.30;;
54787;SDS011;59598;48.112;16.280;2022-07-10T04:27:14;1.30;;;1.20;;
54787;SDS011;59598;48.112;16.280;2022-07-10T04:29:49;1.73;;;1.42;;
54787;SDS011;59598;48.112;16.280;2022-07-10T04:32:23;1.50;;;1.40;;
54787;SDS011;59598;48.112;16.280;2022-07-10T04:35:00;1.85;;;1.70;;
54787;SDS011;59598;48.112;16.280;2022-07-10T04:37:35;1.85;;;1.30;;
54787;SDS011;59598;48.112;16.280;2022-07-10T04:40:07;1.23;;;1.13;;
54787;SDS011;59598;48.112;16.280;2022-07-10T04:42:39;1.60;;;1.50;;
54787;SDS011;59598;48.112;16.280;2022-07-10T04:45:13;1.70;;;1.60;;
54787;SDS011;59598;48.112;16.280;2022-07-10T04:47:44;1.40;;;1.30;;
54787;SDS011;59598;48.112;16.280;2022-07-10T04:50:16;1.48;;;1.38;;
54787;SDS011;59598;48.112;16.280;2022-07-10T04:52:47;1.40;;;1.30;;
54787;SDS011;59598;48.112;16.280;2022-07-10T04:55:21;1.43;;;1.23;;
54787;SDS011;59598;48.112;16.280;2022-07-10T04:57:52;2.67;;;1.50;;
54787;SDS011;59598;48.112;16.280;2022-07-10T05:00:24;2.78;;;1.80;;
54787;SDS011;59598;48.112;16.280;2022-07-10T05:02:57;1.60;;;1.50;;
54787;SDS011;59598;48.112;16.280;2022-07-10T05:05:31;3.28;;;1.33;;
54787;SDS011;59598;48.112;16.280;2022-07-10T05:08:02;2.00;;;1.60;;
54787;SDS011;59598;48.112;16.280;2022-07-10T05:10:36;1.58;;;1.48;;
54787;SDS011;59598;48.112;16.280;2022-07-10T05:13:10;1.52;;;1.42;;
54787;SDS011;59598;48.112;16.280;2022-07-10T05:15:45;1.47;;;1.37;;
54787;SDS011;59598;48.112;16.280;2022-07-10T05:18:17;2.00;;;1.80;;
54787;SDS011;59598;48.112;16.280;2022-07-10T05:20:51;1.52;;;1.42;;
54787;SDS011;59598;48.112;16.280;2022-07-10T05:23:22;2.15;;;1.40;;
54787;SDS011;59598;48.112;16.280;2022-07-10T05:25:57;1.52;;;1.42;;
54787;SDS011;59598;48.112;16.280;2022-07-10T05:28:31;3.40;;;1.77;;
54787;SDS011;59598;48.112;16.280;2022-07-10T05:31:02;4.55;;;1.42;;
54787;SDS011;59598;48.112;16.280;2022-07-10T05:33:33;1.50;;;1.40;;
54787;SDS011;59598;48.112;16.280;2022-07-10T05:36:09;1.80;;;1.45;;
54787;SDS011;59598;48.112;16.280;2022-07-10T05:38:41;2.28;;;1.25;;
54787;SDS011;59598;48.112;16.280;2022-07-10T05:41:13;1.35;;;1.25;;
54787;SDS011;59598;48.112;16.280;2022-07-10T05:43:44;2.47;;;1.60;;
54787;SDS011;59598;48.112;16.280;2022-07-10T05:46:15;3.28;;;2.40;;
54787;SDS011;59598;48.112;16.280;2022-07-10T05:48:49;1.48;;;1.38;;
54787;SDS011;59598;48.112;16.280;2022-07-10T05:51:20;2.53;;;1.38;;
54787;SDS011;59598;48.112;16.280;2022-07-10T05:53:52;1.58;;;1.48;;
54787;SDS011;59598;48.112;16.280;2022-07-10T05:56:24;1.90;;;1.63;;
54787;SDS011;59598;48.112;16.280;2022-07-10T05:58:55;2.25;;;1.55;;
54787;SDS011;59598;48.112;16.280;2022-07-10T06:01:31;3.13;;;1.60;;
54787;SDS011;59598;48.112;16.280;2022-07-10T06:04:05;2.78;;;2.33;;
54787;SDS011;59598;48.112;16.280;2022-07-10T06:06:38;2.10;;;1.48;;
54787;SDS011;59598;48.112;16.280;2022-07-10T06:09:17;2.17;;;1.98;;
54787;SDS011;59598;48.112;16.280;2022-07-10T06:11:54;3.15;;;1.40;;
54787;SDS011;59598;48.112;16.280;2022-07-10T06:14:25;1.75;;;1.35;;
54787;SDS011;59598;48.112;16.280;2022-07-10T06:16:56;2.20;;;2.00;;
54787;SDS011;59598;48.112;16.280;2022-07-10T06:19:29;1.73;;;1.63;;
54787;SDS011;59598;48.112;16.280;2022-07-10T06:22:00;1.95;;;1.80;;
54787;SDS011;59598;48.112;16.280;2022-07-10T06:24:54;3.50;;;1.70;;
54787;SDS011;59598;48.112;16.280;2022-07-10T06:27:26;3.05;;;2.05;;
54787;SDS011;59598;48.112;16.280;2022-07-10T06:29:58;2.67;;;1.60;;
54787;SDS011;59598;48.112;16.280;2022-07-10T06:32:31;2.53;;;1.85;;
54787;SDS011;59598;48.112;16.280;2022-07-10T06:35:08;1.75;;;1.63;;
54787;SDS011;59598;48.112;16.280;2022-07-10T06:37:44;3.58;;;2.00;;
54787;SDS011;59598;48.112;16.280;2022-07-10T06:40:16;2.40;;;2.20;;
54787;SDS011;59598;48.112;16.280;2022-07-10T06:42:52;1.80;;;1.70;;
54787;SDS011;59598;48.112;16.280;2022-07-10T06:45:24;1.85;;;1.60;;
54787;SDS011;59598;48.112;16.280;2022-07-10T06:47:55;4.80;;;1.90;;
54787;SDS011;59598;48.112;16.280;2022-07-10T06:50:32;1.70;;;1.60;;
54787;SDS011;59598;48.112;16.280;2022-07-10T06:53:05;5.68;;;1.80;;
54787;SDS011;59598;48.112;16.280;2022-07-10T06:55:36;1.85;;;1.63;;
54787;SDS011;59598;48.112;16.280;2022-07-10T06:58:10;1.92;;;1.83;;
54787;SDS011;59598;48.112;16.280;2022-07-10T07:00:44;1.80;;;1.70;;
54787;SDS011;59598;48.112;16.280;2022-07-10T07:03:16;1.80;;;1.70;;
54787;SDS011;59598;48.112;16.280;2022-07-10T07:05:47;2.75;;;1.50;;
54787;SDS011;59598;48.112;16.280;2022-07-10T07:08:18;8.55;;;2.00;;
54787;SDS011;59598;48.112;16.280;2022-07-10T07:10:51;3.13;;;1.52;;
54787;SDS011;59598;48.112;16.280;2022-07-10T07:13:25;2.22;;;2.03;;
54787;SDS011;59598;48.112;16.280;2022-07-10T07:15:58;2.03;;;1.93;;
54787;SDS011;59598;48.112;16.280;2022-07-10T07:18:37;1.70;;;1.60;;
54787;SDS011;59598;48.112;16.280;2022-07-10T07:21:20;2.33;;;1.60;;
54787;SDS011;59598;48.112;16.280;2022-07-10T07:24:10;1.35;;;1.25;;
54787;SDS011;59598;48.112;16.280;2022-07-10T07:26:41;1.50;;;1.40;;
54787;SDS011;59598;48.112;16.280;2022-07-10T07:29:18;1.90;;;1.70;;
54787;SDS011;59598;48.112;16.280;2022-07-10T07:31:49;1.70;;;1.60;;
54787;SDS011;59598;48.112;16.280;2022-07-10T07:34:22;2.55;;;1.60;;
54787;SDS011;59598;48.112;16.280;2022-07-10T07:36:54;2.25;;;2.15;;
54787;SDS011;59598;48.112;16.280;2022-07-10T07:39:25;1.80;;;1.70;;
54787;SDS011;59598;48.112;16.280;2022-07-10T07:41:56;1.50;;;1.40;;
54787;SDS011;59598;48.112;16.280;2022-07-10T07:44:32;2.85;;;1.80;;
54787;SDS011;59598;48.112;16.280;2022-07-10T07:47:06;2.70;;;1.90;;
54787;SDS011;59598;48.112;16.280;2022-07-10T07:49:37;1.77;;;1.60;;
54787;SDS011;59598;48.112;16.280;2022-07-10T07:52:08;1.88;;;1.75;;
54787;SDS011;59598;48.112;16.280;2022-07-10T07:54:40;2.67;;;2.13;;
54787;SDS011;59598;48.112;16.280;2022-07-10T07:57:14;2.78;;;1.75;;
54787;SDS011;59598;48.112;16.280;2022-07-10T07:59:45;2.10;;;1.90;;
54787;SDS011;59598;48.112;16.280;2022-07-10T08:02:16;2.30;;;2.10;;
54787;SDS011;59598;48.112;16.280;2022-07-10T08:04:48;2.08;;;1.75;;
54787;SDS011;59598;48.112;16.280;2022-07-10T08:07:19;4.95;;;2.00;;
54787;SDS011;59598;48.112;16.280;2022-07-10T08:09:50;3.03;;;2.10;;
54787;SDS011;59598;48.112;16.280;2022-07-10T08:12:21;2.33;;;2.13;;
54787;SDS011;59598;48.112;16.280;2022-07-10T08:14:55;6.05;;;1.98;;
54787;SDS011;59598;48.112;16.280;2022-07-10T08:17:28;2.65;;;2.33;;
54787;SDS011;59598;48.112;16.280;2022-07-10T08:20:08;3.13;;;2.10;;
54787;SDS011;59598;48.112;16.280;2022-07-10T08:22:42;4.18;;;2.58;;
54787;SDS011;59598;48.112;16.280;2022-07-10T08:25:18;2.30;;;2.10;;
54787;SDS011;59598;48.112;16.280;2022-07-10T08:27:51;3.22;;;2.60;;
54787;SDS011;59598;48.112;16.280;2022-07-10T08:30:25;3.88;;;2.67;;
54787;SDS011;59598;48.112;16.280;2022-07-10T08:32:57;2.90;;;2.60;;
54787;SDS011;59598;48.112;16.280;2022-07-10T08:35:30;6.00;;;2.42;;
54787;SDS011;59598;48.112;16.280;2022-07-10T08:38:07;3.20;;;2.63;;
54787;SDS011;59598;48.112;16.280;2022-07-10T08:40:43;3.72;;;2.78;;
54787;SDS011;59598;48.112;16.280;2022-07-10T08:43:20;3.22;;;2.42;;
54787;SDS011;59598;48.112;16.280;2022-07-10T08:45:54;2.30;;;2.10;;
54787;SDS011;59598;48.112;16.280;2022-07-10T08:48:26;2.55;;;1.90;;
54787;SDS011;59598;48.112;16.280;2022-07-10T08:50:58;3.05;;;1.50;;
54787;SDS011;59598;48.112;16.280;2022-07-10T08:53:37;4.55;;;1.77;;
54787;SDS011;59598;48.112;16.280;2022-07-10T08:56:10;1.52;;;1.38;;
54787;SDS011;59598;48.112;16.280;2022-07-10T08:58:47;1.40;;;1.30;;
54787;SDS011;59598;48.112;16.280;2022-07-10T09:01:28;2.80;;;1.15;;
54787;SDS011;59598;48.112;16.280;2022-07-10T09:04:01;1.40;;;1.30;;
54787;SDS011;59598;48.112;16.280;2022-07-10T09:06:35;1.33;;;1.23;;
54787;SDS011;59598;48.112;16.280;2022-07-10T09:09:06;1.90;;;1.50;;
54787;SDS011;59598;48.112;16.280;2022-07-10T09:11:39;1.40;;;1.30;;
54787;SDS011;59598;48.112;16.280;2022-07-10T09:14:17;1.50;;;1.40;;
54787;SDS011;59598;48.112;16.280;2022-07-10T09:16:54;1.42;;;1.33;;
54787;SDS011;59598;48.112;16.280;2022-07-10T09:19:28;1.25;;;1.20;;
54787;SDS011;59598;48.112;16.280;2022-07-10T09:24:47;1.73;;;1.63;;
54787;SDS011;59598;48.112;16.280;2022-07-10T09:27:21;2.00;;;1.17;;
54787;SDS011;59598;48.112;16.280;2022-07-10T09:29:55;1.23;;;0.95;;
54787;SDS011;59598;48.112;16.280;2022-07-10T09:32:28;1.42;;;1.33;;
54787;SDS011;59598;48.112;16.280;2022-07-10T09:34:59;1.40;;;1.13;;
54787;SDS011;59598;48.112;16.280;2022-07-10T09:37:50;1.08;;;1.08;;
54787;SDS011;59598;48.112;16.280;2022-07-10T09:40:25;1.20;;;1.20;;
54787;SDS011;59598;48.112;16.280;2022-07-10T09:43:00;1.17;;;1.13;;
54787;SDS011;59598;48.112;16.280;2022-07-10T09:45:34;1.08;;;1.08;;
54787;SDS011;59598;48.112;16.280;2022-07-10T09:48:07;0.77;;;0.77;;
54787;SDS011;59598;48.112;16.280;2022-07-10T09:50:43;1.13;;;0.90;;
54787;SDS011;59598;48.112;16.280;2022-07-10T09:53:17;0.97;;;0.97;;
54787;SDS011;59598;48.112;16.280;2022-07-10T09:55:48;1.17;;;1.15;;
54787;SDS011;59598;48.112;16.280;2022-07-10T09:58:19;1.40;;;1.30;;
54787;SDS011;59598;48.112;16.280;2022-07-10T10:00:58;1.05;;;1.05;;
54787;SDS011;59598;48.112;16.280;2022-07-10T10:03:35;1.38;;;1.27;;
54787;SDS011;59598;48.112;16.280;2022-07-10T10:06:10;1.40;;;1.30;;
54787;SDS011;59598;48.112;16.280;2022-07-10T10:08:48;2.00;;;1.30;;
54787;SDS011;59598;48.112;16.280;2022-07-10T10:11:36;1.38;;;1.20;;
54787;SDS011;59598;48.112;16.280;2022-07-10T10:14:12;1.55;;;1.23;;
54787;SDS011;59598;48.112;16.280;2022-07-10T10:16:49;1.10;;;1.00;;
54787;SDS011;59598;48.112;16.280;2022-07-10T10:19:20;1.52;;;1.23;;
54787;SDS011;59598;48.112;16.280;2022-07-10T10:22:15;1.48;;;1.30;;
54787;SDS011;59598;48.112;16.280;2022-07-10T10:24:49;1.08;;;1.00;;
54787;SDS011;59598;48.112;16.280;2022-07-10T10:27:29;1.52;;;1.30;;
54787;SDS011;59598;48.112;16.280;2022-07-10T10:30:02;1.25;;;1.15;;
54787;SDS011;59598;48.112;16.280;2022-07-10T10:32:33;1.73;;;1.63;;
54787;SDS011;59598;48.112;16.280;2022-07-10T10:35:10;3.90;;;1.33;;
54787;SDS011;59598;48.112;16.280;2022-07-10T10:38:02;2.05;;;1.50;;
54787;SDS011;59598;48.112;16.280;2022-07-10T10:40:33;1.85;;;1.38;;
54787;SDS011;59598;48.112;16.280;2022-07-10T10:45:56;1.80;;;1.10;;
54787;SDS011;59598;48.112;16.280;2022-07-10T10:49:03;0.90;;;0.90;;
54787;SDS011;59598;48.112;16.280;2022-07-10T10:52:10;2.72;;;1.17;;
54787;SDS011;59598;48.112;16.280;2022-07-10T11:00:02;1.73;;;1.13;;
54787;SDS011;59598;48.112;16.280;2022-07-10T11:02:40;1.48;;;1.38;;
54787;SDS011;59598;48.112;16.280;2022-07-10T11:07:51;1.08;;;1.08;;
54787;SDS011;59598;48.112;16.280;2022-07-10T11:10:29;1.50;;;1.15;;
54787;SDS011;59598;48.112;16.280;2022-07-10T11:15:42;1.63;;;0.90;;
54787;SDS011;59598;48.112;16.280;2022-07-10T11:18:22;1.60;;;1.10;;
54787;SDS011;59598;48.112;16.280;2022-07-10T11:20:59;2.22;;;1.38;;
54787;SDS011;59598;48.112;16.280;2022-07-10T11:26:35;1.33;;;1.23;;
54787;SDS011;59598;48.112;16.280;2022-07-10T11:29:17;1.40;;;1.13;;
54787;SDS011;59598;48.112;16.280;2022-07-10T11:31:56;1.52;;;1.25;;
54787;SDS011;59598;48.112;16.280;2022-07-10T11:34:34;0.90;;;0.90;;
54787;SDS011;59598;48.112;16.280;2022-07-10T11:37:16;1.50;;;1.10;;
54787;SDS011;59598;48.112;16.280;2022-07-10T11:40:11;1.23;;;1.13;;
54787;SDS011;59598;48.112;16.280;2022-07-10T11:42:47;1.17;;;1.02;;
54787;SDS011;59598;48.112;16.280;2022-07-10T11:45:47;1.55;;;1.45;;
54787;SDS011;59598;48.112;16.280;2022-07-10T11:48:19;1.30;;;1.20;;
54787;SDS011;59598;48.112;16.280;2022-07-10T11:50:56;1.10;;;1.10;;
54787;SDS011;59598;48.112;16.280;2022-07-10T11:53:32;1.02;;;0.80;;
54787;SDS011;59598;48.112;16.280;2022-07-10T11:56:06;0.90;;;0.90;;
54787;SDS011;59598;48.112;16.280;2022-07-10T11:58:41;5.97;;;1.10;;
54787;SDS011;59598;48.112;16.280;2022-07-10T12:01:23;1.25;;;0.93;;
54787;SDS011;59598;48.112;16.280;2022-07-10T12:03:57;2.20;;;0.90;;
54787;SDS011;59598;48.112;16.280;2022-07-10T12:06:29;1.77;;;1.02;;
54787;SDS011;59598;48.112;16.280;2022-07-10T12:09:08;1.15;;;1.02;;
54787;SDS011;59598;48.112;16.280;2022-07-10T12:11:41;1.40;;;1.02;;
54787;SDS011;59598;48.112;16.280;2022-07-10T12:14:18;1.10;;;1.00;;
54787;SDS011;59598;48.112;16.280;2022-07-10T12:16:53;2.92;;;0.88;;
54787;SDS011;59598;48.112;16.280;2022-07-10T12:19:27;3.42;;;1.23;;
54787;SDS011;59598;48.112;16.280;2022-07-10T12:22:01;0.77;;;0.77;;
54787;SDS011;59598;48.112;16.280;2022-07-10T12:24:34;1.33;;;1.10;;
54787;SDS011;59598;48.112;16.280;2022-07-10T12:27:14;1.10;;;1.00;;
54787;SDS011;59598;48.112;16.280;2022-07-10T12:30:09;2.22;;;1.00;;
54787;SDS011;59598;48.112;16.280;2022-07-10T12:32:43;1.90;;;1.42;;
54787;SDS011;59598;48.112;16.280;2022-07-10T12:35:17;1.70;;;1.08;;
54787;SDS011;59598;48.112;16.280;2022-07-10T12:37:52;2.33;;;1.00;;
54787;SDS011;59598;48.112;16.280;2022-07-10T12:40:30;1.58;;;0.88;;
54787;SDS011;59598;48.112;16.280;2022-07-10T12:43:04;1.00;;;0.90;;
54787;SDS011;59598;48.112;16.280;2022-07-10T12:45:37;1.10;;;1.00;;
54787;SDS011;59598;48.112;16.280;2022-07-10T12:48:21;1.55;;;0.90;;
54787;SDS011;59598;48.112;16.280;2022-07-10T12:50:57;0.80;;;0.80;;
54787;SDS011;59598;48.112;16.280;2022-07-10T12:53:51;1.23;;;0.80;;
54787;SDS011;59598;48.112;16.280;2022-07-10T12:56:31;1.92;;;0.80;;
54787;SDS011;59598;48.112;16.280;2022-07-10T12:59:16;1.85;;;0.90;;
54787;SDS011;59598;48.112;16.280;2022-07-10T13:01:49;1.63;;;0.70;;
54787;SDS011;59598;48.112;16.280;2022-07-10T13:04:23;1.25;;;1.15;;
54787;SDS011;59598;48.112;16.280;2022-07-10T13:07:11;1.55;;;0.90;;
54787;SDS011;59598;48.112;16.280;2022-07-10T13:09:52;0.63;;;0.57;;
54787;SDS011;59598;48.112;16.280;2022-07-10T13:12:26;0.85;;;0.70;;
54787;SDS011;59598;48.112;16.280;2022-07-10T13:14:57;0.82;;;0.82;;
54787;SDS011;59598;48.112;16.280;2022-07-10T13:17:33;0.60;;;0.60;;
54787;SDS011;59598;48.112;16.280;2022-07-10T13:20:15;0.73;;;0.73;;
54787;SDS011;59598;48.112;16.280;2022-07-10T13:22:49;0.95;;;0.60;;
54787;SDS011;59598;48.112;16.280;2022-07-10T13:25:21;0.68;;;0.68;;
54787;SDS011;59598;48.112;16.280;2022-07-10T13:27:55;2.17;;;0.90;;
54787;SDS011;59598;48.112;16.280;2022-07-10T13:30:27;2.10;;;0.80;;
54787;SDS011;59598;48.112;16.280;2022-07-10T13:32:58;1.10;;;0.95;;
54787;SDS011;59598;48.112;16.280;2022-07-10T13:35:30;0.60;;;0.60;;
54787;SDS011;59598;48.112;16.280;2022-07-10T13:38:04;0.50;;;0.50;;
54787;SDS011;59598;48.112;16.280;2022-07-10T13:40:38;0.70;;;0.70;;
54787;SDS011;59598;48.112;16.280;2022-07-10T13:43:11;1.85;;;1.00;;
54787;SDS011;59598;48.112;16.280;2022-07-10T13:45:54;0.95;;;0.60;;
54787;SDS011;59598;48.112;16.280;2022-07-10T13:48:28;2.15;;;0.70;;
54787;SDS011;59598;48.112;16.280;2022-07-10T13:51:02;0.70;;;0.70;;
54787;SDS011;59598;48.112;16.280;2022-07-10T13:53:36;1.58;;;0.90;;
54787;SDS011;59598;48.112;16.280;2022-07-10T13:56:13;1.33;;;0.80;;
54787;SDS011;59598;48.112;16.280;2022-07-10T13:58:44;0.98;;;0.88;;
54787;SDS011;59598;48.112;16.280;2022-07-10T14:01:15;0.98;;;0.70;;
54787;SDS011;59598;48.112;16.280;2022-07-10T14:03:46;1.13;;;0.77;;
54787;SDS011;59598;48.112;16.280;2022-07-10T14:06:18;0.77;;;0.73;;
54787;SDS011;59598;48.112;16.280;2022-07-10T14:08:52;1.13;;;0.63;;
54787;SDS011;59598;48.112;16.280;2022-07-10T14:11:23;1.85;;;0.70;;
54787;SDS011;59598;48.112;16.280;2022-07-10T14:13:57;2.75;;;0.60;;
54787;SDS011;59598;48.112;16.280;2022-07-10T14:16:31;0.65;;;0.65;;
54787;SDS011;59598;48.112;16.280;2022-07-10T14:19:02;1.77;;;0.85;;
54787;SDS011;59598;48.112;16.280;2022-07-10T14:21:33;0.57;;;0.57;;
54787;SDS011;59598;48.112;16.280;2022-07-10T14:24:04;0.68;;;0.68;;
54787;SDS011;59598;48.112;16.280;2022-07-10T14:26:41;0.60;;;0.60;;
54787;SDS011;59598;48.112;16.280;2022-07-10T14:29:12;1.08;;;0.70;;
54787;SDS011;59598;48.112;16.280;2022-07-10T14:31:46;0.82;;;0.82;;
54787;SDS011;59598;48.112;16.280;2022-07-10T14:34:25;0.60;;;0.60;;
54787;SDS011;59598;48.112;16.280;2022-07-10T14:36:59;0.98;;;0.98;;
54787;SDS011;59598;48.112;16.280;2022-07-10T14:39:35;0.60;;;0.60;;
54787;SDS011;59598;48.112;16.280;2022-07-10T14:42:10;1.33;;;0.80;;
54787;SDS011;59598;48.112;16.280;2022-07-10T14:44:41;1.20;;;0.90;;
54787;SDS011;59598;48.112;16.280;2022-07-10T14:47:15;2.40;;;1.00;;
54787;SDS011;59598;48.112;16.280;2022-07-10T14:49:47;0.85;;;0.85;;
54787;SDS011;59598;48.112;16.280;2022-07-10T14:52:18;3.88;;;0.80;;
54787;SDS011;59598;48.112;16.280;2022-07-10T14:54:52;0.75;;;0.68;;
54787;SDS011;59598;48.112;16.280;2022-07-10T14:57:26;0.80;;;0.80;;
54787;SDS011;59598;48.112;16.280;2022-07-10T14:59:57;1.33;;;0.80;;
54787;SDS011;59598;48.112;16.280;2022-07-10T15:02:33;0.60;;;0.60;;
54787;SDS011;59598;48.112;16.280;2022-07-10T15:05:04;1.00;;;0.70;;
54787;SDS011;59598;48.112;16.280;2022-07-10T15:07:36;1.83;;;0.50;;
54787;SDS011;59598;48.112;16.280;2022-07-10T15:10:07;1.40;;;0.90;;
54787;SDS011;59598;48.112;16.280;2022-07-10T15:12:47;0.70;;;0.70;;
54787;SDS011;59598;48.112;16.280;2022-07-10T15:15:18;0.63;;;0.63;;
54787;SDS011;59598;48.112;16.280;2022-07-10T15:17:51;0.70;;;0.70;;
54787;SDS011;59598;48.112;16.280;2022-07-10T15:20:22;0.80;;;0.80;;
54787;SDS011;59598;48.112;16.280;2022-07-10T15:22:53;0.60;;;0.60;;
54787;SDS011;59598;48.112;16.280;2022-07-10T15:25:25;1.48;;;1.38;;
54787;SDS011;59598;48.112;16.280;2022-07-10T15:28:05;0.80;;;0.80;;
54787;SDS011;59598;48.112;16.280;2022-07-10T15:30:40;0.70;;;0.70;;
54787;SDS011;59598;48.112;16.280;2022-07-10T15:33:13;0.70;;;0.70;;
54787;SDS011;59598;48.112;16.280;2022-07-10T15:35:45;1.92;;;0.60;;
54787;SDS011;59598;48.112;16.280;2022-07-10T15:38:16;0.68;;;0.68;;